Time;durP1;ratioP1;P1;durP2;ratioP2;P2;SDS_P1;SDS_P2;PMS_P1;PMS_P2;Temp;Humidity;BMP_temperature;BMP_pressure;BME280_temperature;BME280_humidity;BME280_pressure;Samples;Min_cycle;Max_cycle;Signal;HPM_P1;HPM_P2
2021/07/15 00:00:20;;;;;;;;;;;;;;;;;;5073797;28;19915;-59
2021/07/15 00:02:46;;;;;;;;;;;;;;;;;;5078074;28;20367;-59
2021/07/15 00:05:11;;;;;;;;;;;;;;;;;;5077929;28;19912;-59
2021/07/15 00:07:37;;;;;;;;;;;;;;;;;;5071380;28;19916;-59
2021/07/15 00:10:03;;;;;;;;;;;;;;;;;;5071755;28;20552;-59
2021/07/15 00:12:29;;;;;;;;;;;;;;;;;;5079125;28;19926;-59
2021/07/15 00:14:55;;;;;;;;;;;;;;;;;;5057845;28;19962;-59
2021/07/15 00:17:21;;;;;;;;;;;;;;;;;;5071396;28;19919;-59
2021/07/15 00:19:47;;;;;;;;;;;;;;;;;;5071022;28;19921;-59
2021/07/15 00:22:13;;;;;;;;;;;;;;;;;;5072464;28;20284;-59
2021/07/15 00:24:39;;;;;;;;;;;;;;;;;;5073695;28;19908;-59
2021/07/15 00:27:04;;;;;;;;;;;;;;;;;;5073743;28;19908;-59
2021/07/15 00:29:30;;;;;;;;;;;;;;;;;;5071313;28;19966;-59
2021/07/15 00:31:56;;;;;;;;;;;;;;;;;;5070523;28;19977;-59
2021/07/15 00:34:22;;;;;;;;;;;;;;;;;;5084291;28;20284;-61
2021/07/15 00:36:48;;;;;;;;;;;;;;;;;;5072703;28;19908;-59
2021/07/15 00:39:14;;;;;;;;;;;;;;;;;;5072793;28;19916;-59
2021/07/15 00:41:40;;;;;;;;;;;;;;;;;;5071302;28;19991;-59
2021/07/15 00:44:06;;;;;;;;;;;;;;;;;;5075440;28;20300;-59
2021/07/15 00:46:32;;;;;;;;;;;;;;;;;;5070661;28;19913;-59
2021/07/15 00:48:57;;;;;;;;;;;;;;;;;;5071465;28;20510;-61
2021/07/15 00:51:23;;;;;;;;;;;;;;;;;;5074003;28;19923;-59
2021/07/15 00:53:49;;;;;;;;;;;;;;;;;;5072204;28;19917;-59
2021/07/15 00:56:15;;;;;;;;;;;;;;;;;;5070669;28;19912;-59
2021/07/15 00:58:41;;;;;;;;;;;;;;;;;;5070831;28;19913;-59
2021/07/15 01:01:09;;;;;;;;;;;;;;;;;;5070449;28;19990;-59
2021/07/15 01:03:35;;;;;;;;;;;;;;;;;;5086318;28;19916;-60
2021/07/15 01:06:01;;;;;;;;;;;;;;;;;;5071157;28;19908;-59
2021/07/15 01:08:27;;;;;;;;;;;;;;;;;;5070528;28;19916;-59
2021/07/15 01:10:53;;;;;;;;;;;;;;;;;;5069939;28;20003;-59
2021/07/15 01:13:18;;;;;;;;;;;;;;;;;;5075056;28;20412;-60
2021/07/15 01:15:44;;;;;;;;;;;;;;;;;;5056444;28;19909;-60
2021/07/15 01:18:10;;;;;;;;;;;;;;;;;;5071306;28;19908;-60
2021/07/15 01:20:37;;;;;;;;;;;;;;;;;;5070097;28;20010;-60
2021/07/15 01:23:03;;;;;;;;;;;;;;;;;;5071953;28;19913;-60
2021/07/15 01:25:29;;;;;;;;;;;;;;;;;;5070233;28;19999;-61
2021/07/15 01:27:55;;;;;;;;;;;;;;;;;;5070867;28;19920;-60
2021/07/15 01:30:21;;;;;;;;;;;;;;;;;;5072490;28;20474;-61
2021/07/15 01:32:47;;;;;;;;;;;;;;;;;;5076905;28;20011;-60
2021/07/15 01:35:13;;;;;;;;;;;;;;;;;;5062688;28;19971;-61
2021/07/15 01:37:39;;;;;;;;;;;;;;;;;;5069868;28;19948;-59
2021/07/15 01:40:05;;;;;;;;;;;;;;;;;;5069744;28;19917;-61
2021/07/15 01:42:31;;;;;;;;;;;;;;;;;;5063662;28;19931;-59
2021/07/15 01:44:57;;;;;;;;;;;;;;;;;;5069920;28;19963;-61
2021/07/15 01:47:23;;;;;;;;;;;;;;;;;;5069599;28;20295;-61
2021/07/15 01:49:49;;;;;;;;;;;;;;;;;;5069462;28;20394;-61
2021/07/15 01:52:15;;;;;;;;;;;;;;;;;;5071528;28;19956;-58
2021/07/15 01:54:41;;;;;;;;;;;;;;;;;;5072037;28;19916;-61
2021/07/15 01:57:07;;;;;;;;;;;;;;;;;;5070275;28;19913;-61
2021/07/15 01:59:33;;;;;;;;;;;;;;;;;;5069565;28;19939;-61
2021/07/15 02:01:59;;;;;;;;;;;;;;;;;;5069405;28;19994;-61
2021/07/15 02:04:25;;;;;;;;;;;;;;;;;;5082218;28;19913;-60
2021/07/15 02:06:51;;;;;;;;;;;;;;;;;;5071104;28;19908;-60
2021/07/15 02:09:16;;;;;;;;;;;;;;;;;;5071366;28;19908;-60
2021/07/15 02:11:42;;;;;;;;;;;;;;;;;;5068248;28;19920;-61
2021/07/15 02:14:09;;;;;;;;;;;;;;;;;;5074086;28;20007;-60
2021/07/15 02:16:35;;;;;;;;;;;;;;;;;;5068995;28;19958;-60
2021/07/15 02:19:01;;;;;;;;;;;;;;;;;;5053278;28;19913;-60
2021/07/15 02:21:27;;;;;;;;;;;;;;;;;;5072145;28;20386;-60
2021/07/15 02:23:53;;;;;;;;;;;;;;;;;;5070499;28;19912;-60
2021/07/15 02:26:19;;;;;;;;;;;;;;;;;;5068452;28;19967;-60
2021/07/15 02:28:45;;;;;;;;;;;;;;;;;;5070332;28;19920;-60
2021/07/15 02:31:10;;;;;;;;;;;;;;;;;;5068501;28;19944;-61
2021/07/15 02:33:36;;;;;;;;;;;;;;;;;;5085156;28;19912;-60
2021/07/15 02:36:02;;;;;;;;;;;;;;;;;;5069786;28;19909;-60
2021/07/15 02:38:28;;;;;;;;;;;;;;;;;;5068394;28;20383;-61
2021/07/15 02:40:54;;;;;;;;;;;;;;;;;;5068700;28;19923;-60
2021/07/15 02:43:20;;;;;;;;;;;;;;;;;;5068501;28;20371;-60
2021/07/15 02:45:46;;;;;;;;;;;;;;;;;;5071295;28;19915;-61
2021/07/15 02:48:12;;;;;;;;;;;;;;;;;;5069763;28;19915;-60
2021/07/15 02:50:38;;;;;;;;;;;;;;;;;;5068918;28;19916;-61
2021/07/15 02:53:04;;;;;;;;;;;;;;;;;;5070009;28;20273;-60
2021/07/15 02:55:29;;;;;;;;;;;;;;;;;;5068505;28;19913;-60
2021/07/15 02:57:56;;;;;;;;;;;;;;;;;;5069821;28;19920;-61
2021/07/15 03:00:22;;;;;;;;;;;;;;;;;;5072189;28;19909;-61
2021/07/15 03:02:48;;;;;;;;;;;;;;;;;;5075494;28;19916;-60
2021/07/15 03:05:13;;;;;;;;;;;;;;;;;;5074337;28;19960;-61
2021/07/15 03:07:39;;;;;;;;;;;;;;;;;;5067764;28;19923;-58
2021/07/15 03:10:05;;;;;;;;;;;;;;;;;;5050875;28;19919;-61
2021/07/15 03:12:31;;;;;;;;;;;;;;;;;;5076617;28;20001;-60
2021/07/15 03:14:57;;;;;;;;;;;;;;;;;;5068545;28;19924;-60
2021/07/15 03:17:23;;;;;;;;;;;;;;;;;;5067829;28;19912;-60
2021/07/15 03:19:49;;;;;;;;;;;;;;;;;;5068290;28;19920;-60
2021/07/15 03:22:15;;;;;;;;;;;;;;;;;;5069925;28;19955;-61
2021/07/15 03:24:41;;;;;;;;;;;;;;;;;;5070429;28;19948;-60
2021/07/15 03:27:06;;;;;;;;;;;;;;;;;;5069361;28;20441;-61
2021/07/15 03:29:32;;;;;;;;;;;;;;;;;;5068106;28;19955;-60
2021/07/15 03:31:58;;;;;;;;;;;;;;;;;;5067860;28;19920;-61
2021/07/15 03:34:24;;;;;;;;;;;;;;;;;;5084334;28;19912;-61
2021/07/15 03:36:50;;;;;;;;;;;;;;;;;;5073658;28;19948;-60
2021/07/15 03:39:16;;;;;;;;;;;;;;;;;;5073849;28;19948;-60
2021/07/15 03:41:42;;;;;;;;;;;;;;;;;;5071816;28;19971;-61
2021/07/15 03:44:08;;;;;;;;;;;;;;;;;;5071616;28;19916;-60
2021/07/15 03:46:34;;;;;;;;;;;;;;;;;;5073495;28;19935;-61
2021/07/15 03:49:00;;;;;;;;;;;;;;;;;;5071925;28;19920;-61
2021/07/15 03:51:26;;;;;;;;;;;;;;;;;;5075318;28;20317;-61
2021/07/15 03:53:52;;;;;;;;;;;;;;;;;;5073006;28;19923;-60
2021/07/15 03:56:17;;;;;;;;;;;;;;;;;;5072030;28;19916;-57
2021/07/15 03:58:44;;;;;;;;;;;;;;;;;;5071624;28;19913;-56
2021/07/15 04:01:10;;;;;;;;;;;;;;;;;;5071622;28;19912;-57
2021/07/15 04:03:35;;;;;;;;;;;;;;;;;;5076293;28;19920;-56
2021/07/15 04:06:01;;;;;;;;;;;;;;;;;;5073508;28;20283;-56
2021/07/15 04:08:27;;;;;;;;;;;;;;;;;;5072626;28;19912;-57
2021/07/15 04:10:53;;;;;;;;;;;;;;;;;;5072421;28;20372;-55
2021/07/15 04:13:19;;;;;;;;;;;;;;;;;;5075138;28;19928;-57
2021/07/15 04:15:45;;;;;;;;;;;;;;;;;;5055875;28;20006;-58
2021/07/15 04:18:11;;;;;;;;;;;;;;;;;;5072586;28;19908;-56
2021/07/15 04:20:37;;;;;;;;;;;;;;;;;;5071173;28;19943;-67
2021/07/15 04:23:02;;;;;;;;;;;;;;;;;;5072379;28;20462;-67
2021/07/15 04:25:28;;;;;;;;;;;;;;;;;;5070705;28;19938;-67
2021/07/15 04:27:54;;;;;;;;;;;;;;;;;;5073380;28;20008;-67
2021/07/15 04:30:20;;;;;;;;;;;;;;;;;;5074469;28;20301;-66
2021/07/15 04:32:46;;;;;;;;;;;;;;;;;;5077844;28;19970;-66
2021/07/15 04:35:12;;;;;;;;;;;;;;;;;;5077115;28;20282;-66
2021/07/15 04:37:38;;;;;;;;;;;;;;;;;;5070507;28;20385;-67
2021/07/15 04:40:04;;;;;;;;;;;;;;;;;;5070934;28;19913;-67
2021/07/15 04:42:30;;;;;;;;;;;;;;;;;;5079157;28;20351;-67
2021/07/15 04:44:56;;;;;;;;;;;;;;;;;;5070048;28;19954;-67
2021/07/15 04:47:22;;;;;;;;;;;;;;;;;;5070650;28;20363;-67
2021/07/15 04:49:48;;;;;;;;;;;;;;;;;;5070587;28;19995;-67
2021/07/15 04:52:14;;;;;;;;;;;;;;;;;;5072032;28;20381;-67
2021/07/15 04:54:39;;;;;;;;;;;;;;;;;;5073177;28;19916;-67
2021/07/15 04:57:05;;;;;;;;;;;;;;;;;;5071637;28;19938;-67
2021/07/15 04:59:32;;;;;;;;;;;;;;;;;;5070642;28;20265;-67
2021/07/15 05:01:58;;;;;;;;;;;;;;;;;;5072090;28;20390;-67
2021/07/15 05:04:25;;;;;;;;;;;;;;;;;;5083651;28;20015;-67
2021/07/15 05:06:51;;;;;;;;;;;;;;;;;;5071427;28;20027;-67
2021/07/15 05:09:17;;;;;;;;;;;;;;;;;;5073942;28;20778;-66
2021/07/15 05:11:43;;;;;;;;;;;;;;;;;;5070156;28;19920;-67
2021/07/15 05:14:08;;;;;;;;;;;;;;;;;;5070343;28;19916;-67
2021/07/15 05:16:34;;;;;;;;;;;;;;;;;;5070408;28;19919;-67
2021/07/15 05:19:00;;;;;;;;;;;;;;;;;;5070844;28;19952;-67
2021/07/15 05:21:26;;;;;;;;;;;;;;;;;;5073024;28;20332;-67
2021/07/15 05:23:52;;;;;;;;;;;;;;;;;;5071335;28;20437;-67
2021/07/15 05:26:18;;;;;;;;;;;;;;;;;;5062260;28;20003;-67
2021/07/15 05:28:45;;;;;;;;;;;;;;;;;;5070122;28;19913;-68
2021/07/15 05:31:10;;;;;;;;;;;;;;;;;;5070097;28;20312;-67
2021/07/15 05:33:36;;;;;;;;;;;;;;;;;;5085921;28;19908;-67
2021/07/15 05:36:02;;;;;;;;;;;;;;;;;;5070483;28;20002;-67
2021/07/15 05:38:28;;;;;;;;;;;;;;;;;;5069387;28;19958;-67
2021/07/15 05:40:54;;;;;;;;;;;;;;;;;;5069652;28;19928;-67
2021/07/15 05:43:20;;;;;;;;;;;;;;;;;;5073241;28;19916;-68
2021/07/15 05:45:46;;;;;;;;;;;;;;;;;;5069978;28;19908;-68
2021/07/15 05:48:12;;;;;;;;;;;;;;;;;;5071835;28;19930;-68
2021/07/15 05:50:38;;;;;;;;;;;;;;;;;;5069203;28;20364;-67
2021/07/15 05:53:04;;;;;;;;;;;;;;;;;;5069605;28;20620;-68
2021/07/15 05:55:30;;;;;;;;;;;;;;;;;;5066006;28;19920;-68
2021/07/15 05:57:56;;;;;;;;;;;;;;;;;;5068580;28;19931;-66
2021/07/15 06:00:22;;;;;;;;;;;;;;;;;;5070538;28;19915;-68
2021/07/15 06:02:47;;;;;;;;;;;;;;;;;;5077344;28;19920;-67
2021/07/15 06:05:13;;;;;;;;;;;;;;;;;;5075385;28;20011;-67
2021/07/15 06:07:39;;;;;;;;;;;;;;;;;;5068951;28;19920;-66
2021/07/15 06:10:05;;;;;;;;;;;;;;;;;;5069091;28;19923;-68
2021/07/15 06:12:31;;;;;;;;;;;;;;;;;;5077240;28;19929;-67
2021/07/15 06:14:57;;;;;;;;;;;;;;;;;;5068130;28;20383;-64
2021/07/15 06:17:23;;;;;;;;;;;;;;;;;;5060742;28;19923;-66
2021/07/15 06:19:51;;;;;;;;;;;;;;;;;;5060647;28;19927;-68
2021/07/15 06:22:17;;;;;;;;;;;;;;;;;;5067715;28;20019;-69
2021/07/15 06:24:42;;;;;;;;;;;;;;;;;;5069987;28;20368;-68
2021/07/15 06:27:08;;;;;;;;;;;;;;;;;;5069302;28;19999;-68
2021/07/15 06:29:34;;;;;;;;;;;;;;;;;;5065779;28;20339;-71
2021/07/15 06:32:00;;;;;;;;;;;;;;;;;;5067985;28;19920;-66
2021/07/15 06:34:26;;;;;;;;;;;;;;;;;;5062536;28;20348;-67
2021/07/15 06:36:53;;;;;;;;;;;;;;;;;;5080287;28;19934;-67
2021/07/15 06:39:19;;;;;;;;;;;;;;;;;;5070250;28;19909;-66
2021/07/15 06:41:45;;;;;;;;;;;;;;;;;;5068283;28;19965;-67
2021/07/15 06:44:13;;;;;;;;;;;;;;;;;;5072635;28;19912;-66
2021/07/15 06:46:39;;;;;;;;;;;;;;;;;;5067203;28;19924;-66
2021/07/15 06:49:05;;;;;;;;;;;;;;;;;;5065018;28;20025;-65
2021/07/15 06:51:30;;;;;;;;;;;;;;;;;;5070236;28;19916;-68
2021/07/15 06:53:56;;;;;;;;;;;;;;;;;;5068896;28;19913;-66
2021/07/15 06:56:23;;;;;;;;;;;;;;;;;;5065090;28;20013;-67
2021/07/15 06:58:49;;;;;;;;;;;;;;;;;;5064969;28;19935;-66
2021/07/15 07:01:15;;;;;;;;;;;;;;;;;;5059127;28;20392;-66
2021/07/15 07:03:40;;;;;;;;;;;;;;;;;;5071879;28;19912;-67
2021/07/15 07:06:06;;;;;;;;;;;;;;;;;;5062421;28;20431;-66
2021/07/15 07:08:32;;;;;;;;;;;;;;;;;;5066739;28;19913;-66
2021/07/15 07:10:58;;;;;;;;;;;;;;;;;;5065135;28;19925;-66
2021/07/15 07:13:24;;;;;;;;;;;;;;;;;;5058916;28;20023;-66
2021/07/15 07:15:50;;;;;;;;;;;;;;;;;;5061516;28;19912;-66
2021/07/15 07:18:16;;;;;;;;;;;;;;;;;;5067288;28;19955;-66
2021/07/15 07:20:42;;;;;;;;;;;;;;;;;;5064565;28;19913;-66
2021/07/15 07:23:12;;;;;;;;;;;;;;;;;;5067659;28;19948;-66
2021/07/15 07:25:38;;;;;;;;;;;;;;;;;;5050994;28;20378;-67
2021/07/15 07:28:04;;;;;;;;;;;;;;;;;;5066711;28;19913;-67
2021/07/15 07:30:30;;;;;;;;;;;;;;;;;;5072644;28;19913;-66
2021/07/15 07:32:56;;;;;;;;;;;;;;;;;;5073696;28;19935;-66
2021/07/15 07:35:22;;;;;;;;;;;;;;;;;;5071601;28;19956;-67
2021/07/15 07:37:48;;;;;;;;;;;;;;;;;;5068196;28;19924;-67
2021/07/15 07:40:14;;;;;;;;;;;;;;;;;;5069053;28;19959;-66
2021/07/15 07:42:39;;;;;;;;;;;;;;;;;;5074303;28;20283;-65
2021/07/15 07:45:05;;;;;;;;;;;;;;;;;;5072026;28;19913;-66
2021/07/15 07:47:31;;;;;;;;;;;;;;;;;;5067439;28;20374;-65
2021/07/15 07:49:57;;;;;;;;;;;;;;;;;;5067466;28;19923;-65
2021/07/15 07:52:23;;;;;;;;;;;;;;;;;;5069151;28;20291;-65
2021/07/15 07:54:49;;;;;;;;;;;;;;;;;;5084288;28;19935;-67
2021/07/15 07:57:15;;;;;;;;;;;;;;;;;;5069040;28;19908;-66
2021/07/15 07:59:41;;;;;;;;;;;;;;;;;;5067646;28;19996;-66
2021/07/15 08:02:07;;;;;;;;;;;;;;;;;;5068128;28;20368;-65
2021/07/15 08:04:32;;;;;;;;;;;;;;;;;;5079287;28;19924;-66
2021/07/15 08:06:58;;;;;;;;;;;;;;;;;;5067970;28;19919;-66
2021/07/15 08:09:25;;;;;;;;;;;;;;;;;;5070992;28;20279;-65
2021/07/15 08:11:54;;;;;;;;;;;;;;;;;;5066925;28;19982;-64
2021/07/15 08:14:20;;;;;;;;;;;;;;;;;;5074831;28;19912;-64
2021/07/15 08:16:46;;;;;;;;;;;;;;;;;;5067674;28;19919;-64
2021/07/15 08:19:12;;;;;;;;;;;;;;;;;;5068704;28;19919;-65
2021/07/15 08:21:37;;;;;;;;;;;;;;;;;;5072992;28;19912;-65
2021/07/15 08:24:03;;;;;;;;;;;;;;;;;;5083449;28;20011;-65
2021/07/15 08:26:29;;;;;;;;;;;;;;;;;;5075298;28;19913;-65
2021/07/15 08:28:55;;;;;;;;;;;;;;;;;;5071034;28;19924;-63
2021/07/15 08:31:21;;;;;;;;;;;;;;;;;;5070674;28;20284;-66
2021/07/15 08:33:47;;;;;;;;;;;;;;;;;;5081683;28;19948;-63
2021/07/15 08:36:13;;;;;;;;;;;;;;;;;;5076644;28;19908;-64
2021/07/15 08:38:41;;;;;;;;;;;;;;;;;;5062843;28;19912;-64
2021/07/15 08:41:06;;;;;;;;;;;;;;;;;;5069817;28;20351;-64
2021/07/15 08:43:32;;;;;;;;;;;;;;;;;;5078722;28;19912;-64
2021/07/15 08:45:59;;;;;;;;;;;;;;;;;;5071392;28;19936;-63
2021/07/15 08:48:25;;;;;;;;;;;;;;;;;;5083533;28;19916;-63
2021/07/15 08:50:51;;;;;;;;;;;;;;;;;;5071434;28;20003;-62
2021/07/15 08:53:17;;;;;;;;;;;;;;;;;;5071925;28;19927;-63
2021/07/15 08:58:09;;;;;;;;;;;;;;;;;;5070405;28;20268;-63
2021/07/15 09:00:35;;;;;;;;;;;;;;;;;;5083624;28;19908;-63
2021/07/15 09:03:01;;;;;;;;;;;;;;;;;;5079356;28;20379;-63
2021/07/15 09:05:27;;;;;;;;;;;;;;;;;;5077062;28;19995;-64
2021/07/15 09:07:53;;;;;;;;;;;;;;;;;;5064241;28;20008;-62
2021/07/15 09:10:19;;;;;;;;;;;;;;;;;;5084066;28;19912;-62
2021/07/15 09:12:44;;;;;;;;;;;;;;;;;;5072009;28;20017;-63
2021/07/15 09:15:14;;;;;;;;;;;;;;;;;;5078294;28;20279;-63
2021/07/15 09:17:40;;;;;;;;;;;;;;;;;;5074908;28;19915;-63
2021/07/15 09:20:06;;;;;;;;;;;;;;;;;;5068588;28;20386;-62
2021/07/15 09:22:32;;;;;;;;;;;;;;;;;;5072934;28;19908;-63
2021/07/15 09:24:58;;;;;;;;;;;;;;;;;;5077865;28;19939;-62
2021/07/15 09:27:24;;;;;;;;;;;;;;;;;;5072790;28;19954;-63
2021/07/15 09:29:49;;;;;;;;;;;;;;;;;;5073638;28;20287;-62
2021/07/15 09:32:16;;;;;;;;;;;;;;;;;;5072797;28;19923;-62
2021/07/15 09:34:42;;;;;;;;;;;;;;;;;;5081878;28;20354;-62
2021/07/15 09:37:07;;;;;;;;;;;;;;;;;;5077001;28;19966;-63
2021/07/15 09:39:33;;;;;;;;;;;;;;;;;;5082078;28;19993;-62
2021/07/15 09:41:59;;;;;;;;;;;;;;;;;;5071478;28;20360;-62
2021/07/15 09:44:25;;;;;;;;;;;;;;;;;;5079444;28;19934;-63
2021/07/15 09:46:51;;;;;;;;;;;;;;;;;;5082705;28;19947;-63
2021/07/15 09:49:17;;;;;;;;;;;;;;;;;;5070303;28;19995;-63
2021/07/15 09:51:45;;;;;;;;;;;;;;;;;;5071197;28;19917;-63
2021/07/15 09:54:11;;;;;;;;;;;;;;;;;;5056518;28;19952;-63
2021/07/15 09:56:37;;;;;;;;;;;;;;;;;;5071000;28;19947;-62
2021/07/15 09:59:02;;;;;;;;;;;;;;;;;;5070553;28;19978;-63
2021/07/15 10:01:28;;;;;;;;;;;;;;;;;;5080646;28;19915;-62
2021/07/15 10:04:00;;;;;;;;;;;;;;;;;;5074267;28;19920;-64
2021/07/15 10:06:26;;;;;;;;;;;;;;;;;;5054285;28;19917;-64
2021/07/15 10:08:52;;;;;;;;;;;;;;;;;;5070327;28;19916;-64
2021/07/15 10:11:18;;;;;;;;;;;;;;;;;;5073543;28;20275;-64
2021/07/15 10:13:44;;;;;;;;;;;;;;;;;;5070279;28;19923;-64
2021/07/15 10:16:10;;;;;;;;;;;;;;;;;;5070045;28;19912;-64
2021/07/15 10:18:37;;;;;;;;;;;;;;;;;;5072249;28;19908;-64
2021/07/15 10:21:03;;;;;;;;;;;;;;;;;;5072890;28;19916;-66
2021/07/15 10:23:29;;;;;;;;;;;;;;;;;;5071910;28;20382;-65
2021/07/15 10:25:54;;;;;;;;;;;;;;;;;;5073342;28;19917;-64
2021/07/15 10:28:20;;;;;;;;;;;;;;;;;;5071686;28;20037;-64
2021/07/15 10:30:46;;;;;;;;;;;;;;;;;;5054051;28;19981;-64
2021/07/15 10:33:12;;;;;;;;;;;;;;;;;;5070965;28;19924;-64
2021/07/15 10:35:38;;;;;;;;;;;;;;;;;;5070199;28;20268;-64
2021/07/15 10:38:04;;;;;;;;;;;;;;;;;;5070069;28;19912;-64
2021/07/15 10:40:30;;;;;;;;;;;;;;;;;;5071061;28;19917;-64
2021/07/15 10:42:56;;;;;;;;;;;;;;;;;;5071000;28;19912;-63
2021/07/15 10:45:21;;;;;;;;;;;;;;;;;;5054362;28;20025;-63
2021/07/15 10:47:51;;;;;;;;;;;;;;;;;;5071453;28;19927;-64
2021/07/15 10:50:17;;;;;;;;;;;;;;;;;;5070861;28;20489;-64
2021/07/15 10:52:43;;;;;;;;;;;;;;;;;;5071705;28;19920;-65
2021/07/15 10:55:09;;;;;;;;;;;;;;;;;;5069901;28;20006;-65
2021/07/15 10:57:35;;;;;;;;;;;;;;;;;;5070703;28;19923;-65
2021/07/15 11:00:00;;;;;;;;;;;;;;;;;;5068670;28;19928;-65
2021/07/15 11:02:28;;;;;;;;;;;;;;;;;;5058808;28;19931;-64
2021/07/15 11:04:53;;;;;;;;;;;;;;;;;;5076404;28;19916;-66
2021/07/15 11:07:20;;;;;;;;;;;;;;;;;;5068108;28;19966;-64
2021/07/15 11:09:46;;;;;;;;;;;;;;;;;;5070343;28;19935;-65
2021/07/15 11:12:12;;;;;;;;;;;;;;;;;;5071138;28;19924;-65
2021/07/15 11:14:38;;;;;;;;;;;;;;;;;;5071145;28;19928;-65
2021/07/15 11:17:04;;;;;;;;;;;;;;;;;;5067792;28;20387;-64
2021/07/15 11:19:30;;;;;;;;;;;;;;;;;;5069895;28;20363;-65
2021/07/15 11:21:56;;;;;;;;;;;;;;;;;;5069348;28;19924;-64
2021/07/15 11:24:22;;;;;;;;;;;;;;;;;;5072127;28;19913;-64
2021/07/15 11:26:47;;;;;;;;;;;;;;;;;;5069014;28;19962;-64
2021/07/15 11:29:13;;;;;;;;;;;;;;;;;;5071526;28;19985;-63
2021/07/15 11:31:39;;;;;;;;;;;;;;;;;;5081233;28;19917;-63
2021/07/15 11:34:05;;;;;;;;;;;;;;;;;;5069321;28;20423;-66
2021/07/15 11:36:31;;;;;;;;;;;;;;;;;;5074636;28;19950;-66
2021/07/15 11:38:58;;;;;;;;;;;;;;;;;;5068555;28;19971;-65
2021/07/15 11:41:24;;;;;;;;;;;;;;;;;;5076746;28;19920;-64
2021/07/15 11:43:50;;;;;;;;;;;;;;;;;;5080969;28;20277;-64
2021/07/15 11:46:16;;;;;;;;;;;;;;;;;;5067935;28;19999;-66
2021/07/15 11:48:42;;;;;;;;;;;;;;;;;;5078561;28;20050;-64
2021/07/15 11:51:08;;;;;;;;;;;;;;;;;;5081658;28;19916;-65
2021/07/15 11:53:34;;;;;;;;;;;;;;;;;;5072292;28;20358;-65
2021/07/15 11:56:00;;;;;;;;;;;;;;;;;;5071653;28;19913;-67
2021/07/15 11:58:26;;;;;;;;;;;;;;;;;;5072070;28;19919;-66
2021/07/15 12:00:52;;;;;;;;;;;;;;;;;;5087481;28;19908;-66
2021/07/15 12:03:18;;;;;;;;;;;;;;;;;;5084377;28;20371;-66
2021/07/15 12:05:45;;;;;;;;;;;;;;;;;;5073185;28;19954;-73
2021/07/15 12:08:12;;;;;;;;;;;;;;;;;;5073686;28;19919;-72
2021/07/15 12:10:38;;;;;;;;;;;;;;;;;;5074394;28;20341;-73
2021/07/15 12:13:04;;;;;;;;;;;;;;;;;;5079347;28;20406;-73
2021/07/15 12:15:30;;;;;;;;;;;;;;;;;;5074045;28;19995;-73
2021/07/15 12:17:56;;;;;;;;;;;;;;;;;;5081386;28;19916;-73
2021/07/15 12:20:22;;;;;;;;;;;;;;;;;;5077090;28;20372;-72
2021/07/15 12:22:47;;;;;;;;;;;;;;;;;;5082134;28;19920;-60
2021/07/15 12:25:13;;;;;;;;;;;;;;;;;;5070985;28;20058;-60
2021/07/15 12:27:39;;;;;;;;;;;;;;;;;;5083073;28;19961;-60
2021/07/15 12:30:05;;;;;;;;;;;;;;;;;;5081303;28;19908;-60
2021/07/15 12:32:31;;;;;;;;;;;;;;;;;;5081961;28;19920;-60
2021/07/15 12:34:57;;;;;;;;;;;;;;;;;;5081582;28;20398;-60
2021/07/15 12:37:23;;;;;;;;;;;;;;;;;;5078513;28;20015;-60
2021/07/15 12:39:48;;;;;;;;;;;;;;;;;;5083435;28;19912;-60
2021/07/15 12:42:18;;;;;;;;;;;;;;;;;;5082788;28;19951;-60
2021/07/15 12:44:44;;;;;;;;;;;;;;;;;;5072453;28;20431;-60
2021/07/15 12:47:10;;;;;;;;;;;;;;;;;;5070685;28;20008;-60
2021/07/15 12:49:36;;;;;;;;;;;;;;;;;;5071385;28;19920;-60
2021/07/15 12:52:03;;;;;;;;;;;;;;;;;;5078628;28;19978;-60
2021/07/15 12:54:40;;;;;;;;;;;;;;;;;;5077652;28;19942;-60
2021/07/15 12:57:06;;;;;;;;;;;;;;;;;;5073236;28;19913;-62
2021/07/15 12:59:32;;;;;;;;;;;;;;;;;;5075877;28;19920;-62
2021/07/15 13:02:00;;;;;;;;;;;;;;;;;;5070908;28;20338;-61
2021/07/15 13:04:25;;;;;;;;;;;;;;;;;;5083021;28;19912;-60
2021/07/15 13:06:52;;;;;;;;;;;;;;;;;;5073183;28;19995;-60
2021/07/15 13:14:31;;;;;;;;;;;;;;;;;;5079130;28;19939;-60
2021/07/15 13:16:57;;;;;;;;;;;;;;;;;;5081130;28;19920;-60
2021/07/15 13:19:23;;;;;;;;;;;;;;;;;;5070014;28;19920;-61
2021/07/15 13:21:49;;;;;;;;;;;;;;;;;;5086688;28;20371;-59
2021/07/15 13:24:15;;;;;;;;;;;;;;;;;;5072820;28;19905;-60
2021/07/15 13:26:40;;;;;;;;;;;;;;;;;;5073594;28;20281;-60
2021/07/15 13:29:06;;;;;;;;;;;;;;;;;;5070868;28;19912;-60
2021/07/15 13:31:32;;;;;;;;;;;;;;;;;;5074377;28;19977;-60
2021/07/15 13:33:58;;;;;;;;;;;;;;;;;;5084172;28;19913;-60
2021/07/15 13:36:24;;;;;;;;;;;;;;;;;;5082988;28;19908;-60
2021/07/15 13:38:50;;;;;;;;;;;;;;;;;;5078764;28;20001;-60
2021/07/15 13:41:16;;;;;;;;;;;;;;;;;;5076443;28;20462;-62
2021/07/15 13:43:42;;;;;;;;;;;;;;;;;;5079811;28;19920;-62
2021/07/15 13:46:07;;;;;;;;;;;;;;;;;;5073623;28;19999;-63
2021/07/15 13:48:35;;;;;;;;;;;;;;;;;;5082909;28;19908;-63
2021/07/15 13:51:01;;;;;;;;;;;;;;;;;;5071560;28;20436;-63
2021/07/15 13:53:27;;;;;;;;;;;;;;;;;;5073105;28;20011;-63
2021/07/15 13:55:53;;;;;;;;;;;;;;;;;;5078586;28;19912;-63
2021/07/15 13:58:18;;;;;;;;;;;;;;;;;;5073280;28;19913;-63
2021/07/15 14:00:44;;;;;;;;;;;;;;;;;;5071615;28;20324;-63
2021/07/15 14:03:10;;;;;;;;;;;;;;;;;;5080247;28;19912;-63
2021/07/15 14:05:40;;;;;;;;;;;;;;;;;;5072636;28;19908;-63
2021/07/15 14:08:06;;;;;;;;;;;;;;;;;;5077466;28;19913;-63
2021/07/15 14:10:32;;;;;;;;;;;;;;;;;;5052279;28;20283;-63
2021/07/15 14:12:58;;;;;;;;;;;;;;;;;;5074345;28;19974;-63
2021/07/15 14:15:25;;;;;;;;;;;;;;;;;;5078736;28;20201;-63
2021/07/15 14:17:51;;;;;;;;;;;;;;;;;;5076256;28;19919;-63
2021/07/15 14:20:16;;;;;;;;;;;;;;;;;;5074336;28;19913;-63
2021/07/15 14:22:42;;;;;;;;;;;;;;;;;;5078080;28;19999;-63
2021/07/15 14:25:08;;;;;;;;;;;;;;;;;;5079603;28;20731;-63
2021/07/15 14:27:34;;;;;;;;;;;;;;;;;;5072173;28;19923;-63
2021/07/15 14:30:00;;;;;;;;;;;;;;;;;;5081418;28;19912;-63
2021/07/15 14:32:26;;;;;;;;;;;;;;;;;;5076818;28;20302;-63
2021/07/15 14:34:52;;;;;;;;;;;;;;;;;;5078321;28;19999;-63
2021/07/15 14:37:17;;;;;;;;;;;;;;;;;;5068590;28;20417;-63
2021/07/15 14:39:43;;;;;;;;;;;;;;;;;;5070476;28;19908;-63
2021/07/15 14:42:09;;;;;;;;;;;;;;;;;;5076032;28;19950;-63
2021/07/15 14:44:35;;;;;;;;;;;;;;;;;;5072170;28;19966;-63
2021/07/15 14:47:01;;;;;;;;;;;;;;;;;;5068383;28;19954;-63
2021/07/15 14:49:28;;;;;;;;;;;;;;;;;;5079099;28;19920;-63
2021/07/15 14:51:54;;;;;;;;;;;;;;;;;;5076715;28;19958;-63
2021/07/15 14:54:20;;;;;;;;;;;;;;;;;;5074729;28;19963;-63
2021/07/15 14:56:46;;;;;;;;;;;;;;;;;;5069821;28;20264;-63
2021/07/15 14:59:11;;;;;;;;;;;;;;;;;;5067554;28;19912;-63
2021/07/15 15:01:37;;;;;;;;;;;;;;;;;;5067624;28;19966;-63
2021/07/15 15:04:03;;;;;;;;;;;;;;;;;;5071875;28;19912;-63
2021/07/15 15:06:29;;;;;;;;;;;;;;;;;;5071219;28;19908;-63
2021/07/15 15:08:55;;;;;;;;;;;;;;;;;;5068066;28;19916;-63
2021/07/15 15:11:21;;;;;;;;;;;;;;;;;;5075127;28;19916;-63
2021/07/15 15:13:48;;;;;;;;;;;;;;;;;;5078193;28;19921;-63
2021/07/15 15:16:14;;;;;;;;;;;;;;;;;;5067485;28;20328;-63
2021/07/15 15:18:40;;;;;;;;;;;;;;;;;;5081438;28;19993;-63
2021/07/15 15:21:05;;;;;;;;;;;;;;;;;;5071175;28;19909;-63
2021/07/15 15:23:31;;;;;;;;;;;;;;;;;;5073002;28;20277;-63
2021/07/15 15:25:58;;;;;;;;;;;;;;;;;;5068015;28;19924;-63
2021/07/15 15:28:23;;;;;;;;;;;;;;;;;;5077824;28;19917;-63
2021/07/15 15:30:49;;;;;;;;;;;;;;;;;;5086254;28;19915;-63
2021/07/15 15:33:15;;;;;;;;;;;;;;;;;;5088136;28;19920;-63
2021/07/15 15:35:41;;;;;;;;;;;;;;;;;;5081316;28;19912;-63
2021/07/15 15:38:07;;;;;;;;;;;;;;;;;;5079124;28;20371;-63
2021/07/15 15:40:33;;;;;;;;;;;;;;;;;;5079855;28;19913;-63
2021/07/15 15:42:59;;;;;;;;;;;;;;;;;;5081506;28;19913;-63
2021/07/15 15:45:24;;;;;;;;;;;;;;;;;;5084795;28;19908;-63
2021/07/15 15:47:50;;;;;;;;;;;;;;;;;;5072669;28;19959;-62
2021/07/15 15:50:16;;;;;;;;;;;;;;;;;;5074804;28;19912;-63
2021/07/15 15:52:42;;;;;;;;;;;;;;;;;;5072767;28;19921;-63
2021/07/15 15:55:11;;;;;;;;;;;;;;;;;;5075292;28;20355;-63
2021/07/15 15:57:37;;;;;;;;;;;;;;;;;;5075317;28;19916;-62
2021/07/15 16:00:03;;;;;;;;;;;;;;;;;;5081609;28;20671;-63
2021/07/15 16:02:29;;;;;;;;;;;;;;;;;;5082496;28;20255;-63
2021/07/15 16:04:59;;;;;;;;;;;;;;;;;;5069652;28;19916;-63
2021/07/15 16:07:25;;;;;;;;;;;;;;;;;;5084555;28;19935;-63
2021/07/15 16:09:51;;;;;;;;;;;;;;;;;;5078489;28;19909;-63
2021/07/15 16:12:20;;;;;;;;;;;;;;;;;;5081361;28;19920;-63
2021/07/15 16:14:50;;;;;;;;;;;;;;;;;;5075226;28;20009;-63
2021/07/15 16:17:16;;;;;;;;;;;;;;;;;;5075590;28;19939;-63
2021/07/15 16:19:42;;;;;;;;;;;;;;;;;;5084253;28;20298;-63
2021/07/15 16:22:08;;;;;;;;;;;;;;;;;;5084100;28;19996;-63
2021/07/15 16:24:34;;;;;;;;;;;;;;;;;;5079675;28;19912;-61
2021/07/15 16:27:00;;;;;;;;;;;;;;;;;;5071238;28;19959;-63
2021/07/15 16:29:26;;;;;;;;;;;;;;;;;;5071034;28;19912;-63
2021/07/15 16:31:52;;;;;;;;;;;;;;;;;;5074010;28;20284;-62
2021/07/15 16:34:18;;;;;;;;;;;;;;;;;;5084496;28;19913;-63
2021/07/15 16:36:43;;;;;;;;;;;;;;;;;;5073280;28;19930;-63
2021/07/15 16:39:09;;;;;;;;;;;;;;;;;;5078900;28;19958;-63
2021/07/15 16:41:35;;;;;;;;;;;;;;;;;;5075152;28;19912;-63
2021/07/15 16:44:01;;;;;;;;;;;;;;;;;;5076410;28;20328;-63